createdAt,value
2022-08-19T00:01:29.208Z,87.95
2022-08-19T00:04:04.391Z,88.01
2022-08-19T00:06:31.592Z,88.11
2022-08-19T00:09:01.077Z,88.50
2022-08-19T00:11:28.952Z,88.83
2022-08-19T00:13:57.630Z,89.25
2022-08-19T00:16:26.809Z,89.86
2022-08-19T00:18:56.478Z,89.79
2022-08-19T00:21:26.892Z,90.57
2022-08-19T00:23:55.431Z,89.59
2022-08-19T00:26:22.259Z,89.38
2022-08-19T00:28:49.067Z,89.41
2022-08-19T00:31:17.288Z,89.25
2022-08-19T00:33:44.347Z,89.79
2022-08-19T00:36:12.476Z,89.84
2022-08-19T00:38:44.249Z,90.38
2022-08-19T00:41:15.585Z,90.77
2022-08-19T00:43:42.559Z,91.20
2022-08-19T00:46:10.040Z,91.70
2022-08-19T00:48:37.579Z,92.41
2022-08-19T00:51:06.782Z,92.52
2022-08-19T00:53:35.118Z,92.31
2022-08-19T00:56:05.245Z,92.47
2022-08-19T00:58:34.894Z,92.37
2022-08-19T01:01:03.512Z,92.89
2022-08-19T01:03:56.977Z,93.26
2022-08-19T01:06:19.841Z,93.25
2022-08-19T01:08:50.224Z,93.49
2022-08-19T01:11:17.561Z,94.64
2022-08-19T01:13:50.004Z,95.09
2022-08-19T01:16:19.356Z,94.62
2022-08-19T01:18:46.606Z,94.21
2022-08-19T01:21:28.382Z,93.61
2022-08-19T01:23:55.761Z,93.95
2022-08-19T01:26:25.376Z,94.44
2022-08-19T01:28:57.437Z,94.99
2022-08-19T01:31:33.106Z,96.04
2022-08-19T01:34:01.784Z,95.45
2022-08-19T01:36:31.359Z,95.96
2022-08-19T01:38:59.951Z,96.56
2022-08-19T01:41:26.732Z,96.30
2022-08-19T01:44:12.410Z,96.66
2022-08-19T01:46:42.432Z,97.01
2022-08-19T01:49:09.406Z,98.17
2022-08-19T01:51:40.202Z,98.26
2022-08-19T01:54:09.523Z,98.97
2022-08-19T01:56:36.806Z,100.00
2022-08-19T01:59:09.378Z,100.00
2022-08-19T02:01:36.262Z,100.00
2022-08-19T02:04:03.310Z,100.00
2022-08-19T02:06:30.833Z,100.00
2022-08-19T02:08:58.470Z,100.00
2022-08-19T02:11:35.006Z,100.00
2022-08-19T02:14:04.147Z,100.00
2022-08-19T02:16:31.603Z,100.00
2022-08-19T02:19:01.571Z,100.00
2022-08-19T02:21:30.029Z,100.00
2022-08-19T02:23:57.535Z,100.00
2022-08-19T02:26:24.561Z,100.00
2022-08-19T02:28:51.348Z,100.00
2022-08-19T02:31:21.858Z,100.00
2022-08-19T02:33:49.325Z,100.00
2022-08-19T02:36:17.295Z,100.00
2022-08-19T02:38:55.178Z,100.00
2022-08-19T02:41:26.744Z,100.00
2022-08-19T02:44:26.558Z,100.00
2022-08-19T02:46:42.955Z,100.00
2022-08-19T02:49:09.782Z,100.00
2022-08-19T02:51:41.101Z,100.00
2022-08-19T02:54:09.686Z,100.00
2022-08-19T02:56:38.953Z,100.00
2022-08-19T02:59:10.341Z,100.00
2022-08-19T03:01:41.433Z,100.00
2022-08-19T03:04:11.161Z,100.00
2022-08-19T03:06:39.955Z,100.00
2022-08-19T03:09:06.993Z,100.00
2022-08-19T03:11:34.324Z,100.00
2022-08-19T03:14:02.994Z,100.00
2022-08-19T03:16:33.690Z,100.00
2022-08-19T03:19:02.608Z,100.00
2022-08-19T03:21:34.695Z,100.00
2022-08-19T03:24:08.772Z,100.00
2022-08-19T03:26:40.882Z,100.00
2022-08-19T03:29:11.650Z,100.00
2022-08-19T03:31:52.534Z,100.00
2022-08-19T03:34:29.241Z,100.00
2022-08-19T03:37:07.240Z,100.00
2022-08-19T03:39:34.922Z,100.00
2022-08-19T03:42:30.234Z,100.00
2022-08-19T03:44:50.184Z,100.00
2022-08-19T03:47:17.992Z,100.00
2022-08-19T03:49:45.364Z,100.00
2022-08-19T03:52:12.140Z,100.00
2022-08-19T03:54:39.483Z,100.00
2022-08-19T03:57:06.436Z,100.00
2022-08-19T03:59:36.360Z,100.00
2022-08-19T04:02:10.229Z,100.00
2022-08-19T04:04:39.939Z,100.00
2022-08-19T04:07:07.239Z,100.00
2022-08-19T04:09:35.425Z,100.00
2022-08-19T04:12:02.221Z,100.00
2022-08-19T04:14:34.791Z,100.00
2022-08-19T04:17:06.072Z,100.00
2022-08-19T04:19:35.000Z,100.00
2022-08-19T04:22:02.100Z,100.00
2022-08-19T04:24:29.203Z,100.00
2022-08-19T04:26:56.861Z,100.00
2022-08-19T04:29:26.464Z,100.00
2022-08-19T04:31:56.641Z,100.00
2022-08-19T04:34:27.172Z,100.00
2022-08-19T04:36:56.338Z,100.00
2022-08-19T04:39:45.787Z,100.00
2022-08-19T04:42:31.748Z,100.00
2022-08-19T04:44:59.705Z,100.00
2022-08-19T04:47:48.253Z,100.00
2022-08-19T04:50:14.924Z,100.00
2022-08-19T04:52:46.026Z,100.00
2022-08-19T04:55:13.686Z,100.00
2022-08-19T04:57:41.492Z,99.54
2022-08-19T05:00:10.941Z,98.51
2022-08-19T05:02:38.585Z,97.45
2022-08-19T05:05:07.649Z,96.86
2022-08-19T05:07:34.839Z,95.33
2022-08-19T05:10:01.867Z,93.91
2022-08-19T05:12:29.877Z,92.75
2022-08-19T05:14:58.503Z,90.95
2022-08-19T05:17:28.976Z,89.25
2022-08-19T05:20:17.666Z,88.33
2022-08-19T05:22:47.666Z,88.46
2022-08-19T05:25:21.730Z,88.60
2022-08-19T05:27:48.598Z,89.00
2022-08-19T05:30:16.675Z,88.65
2022-08-19T05:32:43.489Z,87.83
2022-08-19T05:35:10.760Z,86.80
2022-08-19T05:37:38.812Z,87.59
2022-08-19T05:40:06.077Z,86.51
2022-08-19T05:42:32.967Z,85.83
2022-08-19T05:44:59.809Z,85.93
2022-08-19T05:47:26.800Z,84.66
2022-08-19T05:49:53.621Z,84.61
2022-08-19T05:52:25.977Z,83.54
2022-08-19T05:54:56.191Z,83.00
2022-08-19T05:57:24.654Z,82.22
2022-08-19T05:59:56.748Z,81.19
2022-08-19T06:02:28.798Z,80.34
2022-08-19T06:04:55.671Z,80.30
2022-08-19T06:07:22.962Z,76.91
2022-08-19T06:09:58.932Z,74.29
2022-08-19T06:12:32.780Z,76.04
2022-08-19T06:15:02.241Z,75.31
2022-08-19T06:17:32.623Z,74.09
2022-08-19T06:20:00.191Z,72.61
2022-08-19T06:22:28.409Z,70.91
2022-08-19T06:24:56.797Z,67.63
2022-08-19T06:27:24.278Z,66.63
2022-08-19T06:29:51.135Z,66.49
2022-08-19T06:32:20.170Z,66.42
2022-08-19T06:34:47.513Z,67.16
2022-08-19T06:37:15.076Z,66.04
2022-08-19T06:39:44.767Z,63.99
2022-08-19T06:42:14.138Z,63.77
2022-08-19T06:44:43.285Z,63.58
2022-08-19T06:47:22.998Z,62.31
2022-08-19T06:49:54.822Z,61.96
2022-08-19T06:52:27.663Z,59.13
2022-08-19T06:54:59.550Z,58.10
2022-08-19T06:57:27.781Z,58.45
2022-08-19T06:59:55.754Z,58.60
2022-08-19T07:02:23.599Z,58.40
2022-08-19T07:04:52.614Z,57.43
2022-08-19T07:07:21.825Z,55.43
2022-08-19T07:09:51.864Z,57.30
2022-08-19T07:12:25.492Z,56.45
2022-08-19T07:14:54.613Z,54.97
2022-08-19T07:17:21.865Z,55.08
2022-08-19T07:19:48.730Z,52.43
2022-08-19T07:22:15.993Z,53.06
2022-08-19T07:24:51.288Z,52.59
2022-08-19T07:27:24.738Z,52.10
2022-08-19T07:29:54.508Z,51.46
2022-08-19T07:32:23.684Z,51.01
2022-08-19T07:34:50.444Z,47.60
2022-08-19T07:37:17.267Z,47.66
2022-08-19T07:39:44.082Z,46.95
2022-08-19T07:42:13.319Z,45.72
2022-08-19T07:47:49.744Z,45.55
2022-08-19T07:49:59.689Z,47.22
2022-08-19T07:52:26.664Z,45.75
2022-08-19T07:54:53.437Z,46.16
2022-08-19T07:57:20.182Z,45.22
2022-08-19T07:59:47.071Z,45.32
2022-08-19T08:02:14.003Z,45.23
2022-08-19T08:04:59.298Z,44.31
2022-08-19T08:07:46.445Z,44.79
2022-08-19T08:10:20.651Z,43.86
2022-08-19T08:13:01.858Z,42.47
2022-08-19T08:15:41.301Z,44.09
2022-08-19T08:18:08.996Z,43.75
2022-08-19T08:20:36.232Z,44.13
2022-08-19T08:23:21.964Z,44.29
2022-08-19T08:25:50.027Z,42.56
2022-08-19T08:28:18.284Z,42.36
2022-08-19T08:30:48.487Z,42.68
2022-08-19T08:33:33.378Z,42.02
2022-08-19T08:36:12.402Z,41.88
2022-08-19T08:38:40.813Z,40.03
2022-08-19T08:41:31.355Z,40.09
2022-08-19T08:43:59.737Z,39.20
2022-08-19T08:46:52.742Z,38.11
2022-08-19T08:49:43.582Z,38.10
2022-08-19T08:52:30.703Z,37.13
2022-08-19T08:55:02.494Z,37.19
2022-08-19T08:57:45.397Z,37.35
2022-08-19T09:00:17.806Z,37.49
2022-08-19T09:02:50.560Z,37.12
2022-08-19T09:05:22.158Z,36.25
2022-08-19T09:08:03.744Z,36.99
2022-08-19T09:10:44.343Z,35.05
2022-08-19T09:13:38.998Z,36.54
2022-08-19T09:16:21.648Z,36.66
2022-08-19T09:18:59.073Z,36.04
2022-08-19T09:21:33.196Z,35.61
2022-08-19T09:24:03.523Z,34.99
2022-08-19T09:26:47.594Z,34.01
2022-08-19T09:29:18.242Z,33.02
2022-08-19T09:31:45.094Z,33.41
2022-08-19T09:34:20.739Z,32.68
2022-08-19T09:36:50.531Z,32.43
2022-08-19T09:39:18.162Z,33.49
2022-08-19T09:41:47.587Z,31.46
2022-08-19T09:44:17.035Z,31.37
2022-08-19T09:46:45.051Z,31.08
2022-08-19T09:49:11.956Z,31.56
2022-08-19T09:51:40.363Z,29.38
2022-08-19T09:54:07.956Z,29.84
2022-08-19T09:56:38.586Z,29.58
2022-08-19T09:59:10.400Z,28.50
2022-08-19T10:01:37.187Z,29.20
2022-08-19T10:04:20.110Z,28.63
2022-08-19T10:06:53.627Z,29.20
2022-08-19T10:09:33.710Z,28.80
2022-08-19T10:12:03.621Z,28.22
2022-08-19T10:14:31.621Z,28.18
2022-08-19T10:16:59.164Z,27.49
2022-08-19T10:19:26.791Z,27.18
2022-08-19T10:21:55.596Z,27.77
2022-08-19T10:24:28.794Z,27.80
2022-08-19T10:26:59.138Z,27.17
2022-08-19T10:29:32.660Z,26.02
2022-08-19T10:32:09.542Z,26.21
2022-08-19T10:34:48.375Z,26.81
2022-08-19T10:37:23.693Z,25.64
2022-08-19T10:39:55.646Z,25.92
2022-08-19T10:42:22.863Z,25.85
2022-08-19T10:44:49.671Z,25.04
2022-08-19T10:47:26.119Z,25.50
2022-08-19T10:50:17.240Z,26.22
2022-08-19T10:52:49.257Z,25.29
2022-08-19T10:55:36.977Z,25.39
2022-08-19T10:58:03.951Z,25.06
2022-08-19T11:00:32.491Z,25.14
2022-08-19T11:02:59.456Z,24.44
2022-08-19T11:05:26.390Z,25.12
2022-08-19T11:07:53.484Z,23.99
2022-08-19T11:10:22.524Z,24.83
2022-08-19T11:12:55.649Z,23.93
2022-08-19T11:15:22.960Z,23.85
2022-08-19T11:17:49.891Z,23.14
2022-08-19T11:20:16.924Z,22.88
2022-08-19T11:22:43.747Z,22.84
2022-08-19T11:25:12.210Z,22.79
2022-08-19T11:27:47.279Z,22.22
2022-08-19T11:30:15.026Z,22.29
2022-08-19T11:32:45.881Z,22.57
2022-08-19T11:35:17.284Z,23.25
2022-08-19T11:37:44.062Z,23.46
2022-08-19T11:40:11.510Z,22.71
2022-08-19T11:42:57.655Z,21.91
2022-08-19T11:45:26.690Z,22.73
2022-08-19T11:47:54.235Z,22.62
2022-08-19T11:50:21.224Z,22.53
2022-08-19T11:52:48.712Z,23.08
2022-08-19T11:55:15.626Z,21.71
2022-08-19T11:57:44.677Z,21.59
2022-08-19T12:00:14.046Z,21.10
2022-08-19T12:02:41.824Z,20.31
2022-08-19T12:05:12.253Z,20.70
2022-08-19T12:07:40.785Z,21.33
2022-08-19T12:10:08.317Z,20.06
2022-08-19T12:12:35.818Z,19.61
2022-08-19T12:15:03.118Z,19.99
2022-08-19T12:17:31.894Z,18.72
2022-08-19T12:19:58.664Z,18.36
2022-08-19T12:22:25.755Z,18.20
2022-08-19T12:24:54.356Z,18.38
2022-08-19T12:27:40.010Z,18.69
2022-08-19T12:30:11.928Z,19.12
2022-08-19T12:32:39.625Z,19.81
2022-08-19T12:35:09.283Z,19.70
2022-08-19T12:37:36.462Z,19.62
2022-08-19T12:40:05.027Z,20.03
2022-08-19T12:42:32.035Z,20.69
2022-08-19T12:44:58.849Z,20.80
2022-08-19T12:47:27.482Z,20.69
2022-08-19T12:49:56.039Z,20.42
2022-08-19T12:52:28.421Z,20.96
2022-08-19T12:54:57.536Z,19.83
2022-08-19T12:57:32.638Z,19.22
2022-08-19T13:00:04.721Z,18.91
2022-08-19T13:02:39.029Z,18.99
2022-08-19T13:05:09.514Z,17.20
2022-08-19T13:07:38.287Z,18.67
2022-08-19T13:10:07.155Z,18.45
2022-08-19T13:12:34.114Z,18.18
2022-08-19T13:15:01.151Z,18.27
2022-08-19T13:17:28.301Z,16.95
2022-08-19T13:19:55.091Z,17.70
2022-08-19T13:22:21.910Z,16.64
2022-08-19T13:24:49.416Z,16.94
2022-08-19T13:27:16.422Z,16.39
2022-08-19T13:30:03.518Z,16.16
2022-08-19T13:32:50.108Z,16.39
2022-08-19T13:35:17.904Z,16.79
2022-08-19T13:37:46.524Z,16.13
2022-08-19T13:40:17.370Z,16.13
2022-08-19T13:42:49.296Z,18.02
2022-08-19T13:45:19.170Z,16.98
2022-08-19T13:47:52.083Z,17.00
2022-08-19T13:50:28.255Z,17.55
2022-08-19T13:52:57.305Z,16.74
2022-08-19T13:55:25.415Z,16.41
2022-08-19T13:57:54.305Z,16.39
2022-08-19T14:00:22.796Z,15.05
2022-08-19T14:02:52.679Z,15.20
2022-08-19T14:05:20.927Z,14.72
2022-08-19T14:07:49.161Z,15.17
2022-08-19T14:10:17.071Z,15.51
2022-08-19T14:12:43.809Z,16.04
2022-08-19T14:15:12.769Z,16.08
2022-08-19T14:17:41.648Z,16.11
2022-08-19T14:20:11.370Z,15.95
2022-08-19T14:22:46.170Z,15.77
2022-08-19T14:25:20.428Z,16.24
2022-08-19T14:27:48.188Z,16.81
2022-08-19T14:30:17.970Z,17.02
2022-08-19T14:32:45.012Z,18.25
2022-08-19T14:35:13.669Z,16.98
2022-08-19T14:37:45.492Z,18.25
2022-08-19T14:40:15.460Z,17.80
2022-08-19T14:42:42.986Z,17.74
2022-08-19T14:45:12.091Z,17.83
2022-08-19T14:47:39.664Z,18.02
2022-08-19T14:50:17.899Z,17.21
2022-08-19T14:52:49.175Z,17.23
2022-08-19T14:55:18.803Z,17.26
2022-08-19T14:57:46.212Z,16.66
2022-08-19T15:00:16.701Z,15.49
2022-08-19T15:02:45.324Z,15.47
2022-08-19T15:05:13.827Z,14.88
2022-08-19T15:07:42.038Z,14.68
2022-08-19T15:10:10.659Z,14.27
2022-08-19T15:12:43.490Z,14.43
2022-08-19T15:15:15.849Z,14.25
2022-08-19T15:17:46.519Z,14.62
2022-08-19T15:20:16.396Z,14.60
2022-08-19T15:22:43.449Z,14.20
2022-08-19T15:25:12.347Z,14.37
2022-08-19T15:27:40.762Z,15.09
2022-08-19T15:30:12.236Z,15.14
2022-08-19T15:32:39.801Z,14.78
2022-08-19T15:35:08.077Z,15.39
2022-08-19T15:37:37.154Z,14.79
2022-08-19T15:40:06.568Z,14.71
2022-08-19T15:42:35.446Z,15.06
2022-08-19T15:45:02.651Z,14.43
2022-08-19T15:47:35.541Z,15.12
2022-08-19T15:50:21.422Z,14.77
2022-08-19T15:52:51.306Z,15.35
2022-08-19T15:55:33.065Z,15.27
2022-08-19T15:58:29.884Z,15.13
2022-08-19T16:01:22.091Z,15.65
2022-08-19T16:04:14.154Z,15.77
2022-08-19T16:06:47.976Z,15.95
2022-08-19T16:09:16.315Z,15.85
2022-08-19T16:11:46.400Z,16.39
2022-08-19T16:14:18.627Z,16.67
2022-08-19T16:16:47.806Z,16.38
2022-08-19T16:19:17.190Z,16.40
2022-08-19T16:21:50.331Z,16.96
2022-08-19T16:24:19.972Z,17.30
2022-08-19T16:26:47.043Z,17.71
2022-08-19T16:29:15.338Z,18.01
2022-08-19T16:31:57.781Z,18.41
2022-08-19T16:34:25.834Z,18.62
2022-08-19T16:36:53.109Z,18.97
2022-08-19T16:39:19.957Z,19.55
2022-08-19T16:41:47.141Z,19.67
2022-08-19T16:44:15.443Z,20.41
2022-08-19T16:46:42.474Z,20.79
2022-08-19T16:49:10.744Z,21.57
2022-08-19T16:51:39.387Z,22.06
2022-08-19T16:54:06.794Z,22.96
2022-08-19T16:56:33.858Z,23.20
2022-08-19T16:59:00.783Z,24.31
2022-08-19T17:01:28.878Z,24.77
2022-08-19T17:03:57.175Z,25.70
2022-08-19T17:06:28.781Z,25.86
2022-08-19T17:08:59.152Z,26.51
2022-08-19T17:11:28.102Z,27.36
2022-08-19T17:13:56.846Z,27.78
2022-08-19T17:16:25.788Z,28.79
2022-08-19T17:18:57.576Z,28.58
2022-08-19T17:21:28.480Z,29.40
2022-08-19T17:23:56.886Z,29.89
2022-08-19T17:26:25.366Z,30.45
2022-08-19T17:28:54.088Z,31.11
2022-08-19T17:31:23.711Z,31.11
2022-08-19T17:33:51.503Z,31.12
2022-08-19T17:36:23.550Z,31.62
2022-08-19T17:38:52.092Z,32.10
2022-08-19T17:41:19.136Z,32.37
2022-08-19T17:43:46.131Z,32.39
2022-08-19T17:46:20.410Z,33.37
2022-08-19T17:48:56.792Z,33.45
2022-08-19T17:51:41.971Z,35.21
2022-08-19T17:54:12.624Z,35.59
2022-08-19T17:56:39.580Z,35.64
2022-08-19T17:59:07.875Z,36.73
2022-08-19T18:01:52.728Z,36.36
2022-08-19T18:04:22.297Z,36.72
2022-08-19T18:06:52.973Z,37.46
2022-08-19T18:09:27.599Z,37.78
2022-08-19T18:11:57.248Z,37.91
2022-08-19T18:14:33.351Z,38.60
2022-08-19T18:17:08.951Z,39.15
2022-08-19T18:19:41.947Z,40.07
2022-08-19T18:22:22.625Z,39.57
2022-08-19T18:24:49.832Z,40.29
2022-08-19T18:27:16.955Z,40.66
2022-08-19T18:29:44.920Z,41.20
2022-08-19T18:32:12.911Z,41.48
2022-08-19T18:34:41.721Z,41.57
2022-08-19T18:37:09.037Z,41.76
2022-08-19T18:39:54.280Z,41.92
2022-08-19T18:42:39.706Z,43.22
2022-08-19T18:45:26.045Z,43.22
2022-08-19T18:48:26.305Z,43.17
2022-08-19T18:50:56.316Z,43.83
2022-08-19T18:53:24.250Z,44.14
2022-08-19T18:55:53.992Z,44.76
2022-08-19T18:58:32.194Z,44.92
2022-08-19T19:01:10.601Z,45.90
2022-08-19T19:03:43.651Z,45.88
2022-08-19T19:06:10.557Z,47.00
2022-08-19T19:08:38.966Z,47.38
2022-08-19T19:11:06.281Z,47.07
2022-08-19T19:13:34.505Z,48.30
2022-08-19T19:16:02.252Z,48.21
2022-08-19T19:18:30.066Z,49.20
2022-08-19T19:20:57.592Z,48.87
2022-08-19T19:23:24.636Z,49.72
2022-08-19T19:25:52.402Z,51.12
2022-08-19T19:28:28.388Z,53.10
2022-08-19T19:30:58.542Z,55.01
2022-08-19T19:33:26.787Z,56.13
2022-08-19T19:35:53.625Z,56.41
2022-08-19T19:38:20.513Z,57.33
2022-08-19T19:40:47.494Z,56.59
2022-08-19T19:43:17.423Z,56.89
2022-08-19T19:45:46.231Z,56.80
2022-08-19T19:48:14.964Z,56.53
2022-08-19T19:50:43.284Z,56.34
2022-08-19T19:53:10.189Z,56.35
2022-08-19T19:55:37.168Z,56.02
2022-08-19T19:58:07.131Z,55.36
2022-08-19T20:00:34.388Z,54.88
2022-08-19T20:03:01.207Z,55.04
2022-08-19T20:05:28.309Z,54.70
2022-08-19T20:08:14.764Z,55.24
2022-08-19T20:10:43.319Z,55.71
2022-08-19T20:13:11.351Z,56.42
2022-08-19T20:15:42.353Z,56.06
2022-08-19T20:18:11.727Z,55.83
2022-08-19T20:20:38.924Z,56.27
2022-08-19T20:23:06.170Z,56.40
2022-08-19T20:25:33.676Z,57.18
2022-08-19T20:28:01.436Z,57.53
2022-08-19T20:30:30.994Z,58.15
2022-08-19T20:33:00.100Z,57.82
2022-08-19T20:35:26.942Z,58.19
2022-08-19T20:37:58.016Z,58.57
2022-08-19T20:40:28.768Z,58.57
2022-08-19T20:42:56.698Z,59.72
2022-08-19T20:45:32.959Z,60.03
2022-08-19T20:48:03.304Z,58.68
2022-08-19T20:50:32.857Z,58.23
2022-08-19T20:53:00.677Z,58.45
2022-08-19T20:55:28.930Z,58.20
2022-08-19T20:57:56.594Z,58.85
2022-08-19T21:00:30.782Z,59.06
2022-08-19T21:12:39.943Z,58.76
2022-08-19T21:15:07.364Z,58.64
2022-08-19T21:17:34.173Z,58.44
2022-08-19T21:20:01.141Z,58.56
2022-08-19T21:22:27.912Z,57.91
2022-08-19T21:24:55.269Z,56.83
2022-08-19T21:27:22.073Z,56.94
2022-08-19T21:29:49.357Z,57.17
2022-08-19T21:32:16.788Z,56.89
2022-08-19T21:34:46.108Z,56.71
2022-08-19T21:37:25.384Z,56.89
2022-08-19T21:39:54.381Z,57.02
2022-08-19T21:42:23.364Z,58.41
2022-08-19T21:44:50.478Z,57.50
2022-08-19T21:47:17.545Z,57.58
2022-08-19T21:49:44.348Z,57.51
2022-08-19T21:52:11.229Z,57.29
2022-08-19T21:54:38.666Z,58.17
2022-08-19T21:57:10.169Z,58.42
2022-08-19T21:59:43.532Z,58.42
2022-08-19T22:02:20.352Z,57.96
2022-08-19T22:04:49.045Z,58.56
2022-08-19T22:07:16.030Z,58.04
2022-08-19T22:09:45.210Z,58.16
2022-08-19T22:12:29.487Z,58.35
2022-08-19T22:14:56.926Z,58.37
2022-08-19T22:17:24.619Z,58.89
2022-08-19T22:19:52.685Z,58.47
2022-08-19T22:22:25.256Z,58.59
2022-08-19T22:24:53.507Z,58.67
2022-08-19T22:27:20.975Z,58.73
2022-08-19T22:29:47.886Z,59.39
2022-08-19T22:32:28.319Z,59.35
2022-08-19T22:34:58.194Z,59.60
2022-08-19T22:37:26.150Z,60.29
2022-08-19T22:39:53.337Z,59.94
2022-08-19T22:42:21.188Z,60.26
2022-08-19T22:44:48.903Z,60.37
2022-08-19T22:47:15.866Z,60.32
2022-08-19T22:49:42.591Z,60.43
2022-08-19T22:52:17.470Z,59.96
2022-08-19T22:54:46.675Z,59.53
2022-08-19T22:57:14.811Z,59.92
2022-08-19T22:59:43.977Z,59.85
2022-08-19T23:02:12.014Z,60.99
2022-08-19T23:04:38.828Z,60.52
2022-08-19T23:07:05.987Z,61.03
2022-08-19T23:09:32.800Z,60.75
2022-08-19T23:12:00.695Z,60.63
2022-08-19T23:14:28.120Z,61.43
2022-08-19T23:16:58.765Z,61.51
2022-08-19T23:19:26.131Z,62.12
2022-08-19T23:21:52.951Z,62.42
2022-08-19T23:24:19.795Z,62.29
2022-08-19T23:27:05.012Z,61.82
2022-08-19T23:29:50.501Z,62.83
2022-08-19T23:32:19.107Z,62.51
2022-08-19T23:34:46.488Z,63.00
2022-08-19T23:37:13.349Z,63.51
2022-08-19T23:39:40.936Z,64.39
2022-08-19T23:42:11.507Z,64.67
2022-08-19T23:44:51.359Z,65.51
2022-08-19T23:47:19.277Z,65.44
2022-08-19T23:49:47.603Z,66.26
2022-08-19T23:52:14.473Z,67.12
2022-08-19T23:54:43.409Z,67.53
2022-08-19T23:57:13.493Z,66.70
2022-08-19T23:59:42.723Z,66.87
